Time;durP1;ratioP1;P1;durP2;ratioP2;P2;SDS_P1;SDS_P2;PMS_P1;PMS_P2;Temp;Humidity;BMP_temperature;BMP_pressure;BME280_temperature;BME280_humidity;BME280_pressure;Samples;Min_cycle;Max_cycle;Signal;HPM_P1;HPM_P2
2022/03/18 00:01:17;;;;;;;34.30;19.73;;;4.00;99.90;3.00;102442;;;;574946;246;24129;-81
2022/03/18 00:03:45;;;;;;;33.77;19.33;;;3.90;99.90;3.00;102448;;;;563318;251;24104;-83
2022/03/18 00:06:16;;;;;;;33.40;17.40;;;3.90;99.90;3.00;102453;;;;574134;246;24127;-79
2022/03/18 00:08:41;;;;;;;34.30;16.37;;;3.90;99.90;3.00;102450;;;;563022;251;24168;-80
2022/03/18 00:11:09;;;;;;;32.83;17.47;;;3.90;99.90;3.00;102456;;;;574104;246;24086;-79
2022/03/18 00:13:38;;;;;;;31.30;18.90;;;3.90;99.90;3.00;102456;;;;563043;251;24140;-79
2022/03/18 00:16:06;;;;;;;35.67;19.73;;;3.90;99.90;3.00;102463;;;;574286;246;24109;-80
2022/03/18 00:18:35;;;;;;;35.33;18.73;;;3.90;99.90;3.00;102456;;;;563113;251;24108;-80
2022/03/18 00:21:06;;;;;;;36.73;19.53;;;3.90;99.90;2.90;102454;;;;574439;246;24143;-78
2022/03/18 00:23:31;;;;;;;33.07;18.77;;;3.90;99.90;2.90;102464;;;;562962;251;24157;-79
2022/03/18 00:25:59;;;;;;;34.57;19.83;;;3.90;99.90;3.00;102465;;;;574990;246;24123;-79
2022/03/18 00:28:27;;;;;;;32.43;19.40;;;3.90;99.90;3.00;102456;;;;564692;250;24109;-79
2022/03/18 00:30:55;;;;;;;32.40;18.57;;;3.90;99.90;3.00;102470;;;;574809;246;24088;-80
2022/03/18 00:33:26;;;;;;;32.60;17.97;;;3.90;99.90;3.00;102468;;;;568224;249;24119;-79
2022/03/18 00:35:52;;;;;;;35.90;19.67;;;3.90;99.90;2.90;102468;;;;564685;250;24125;-79
2022/03/18 00:38:19;;;;;;;34.30;18.47;;;3.90;99.90;2.90;102473;;;;572130;250;24119;-80
2022/03/18 00:40:50;;;;;;;32.87;18.27;;;3.90;99.90;2.90;102474;;;;567478;249;24141;-79
2022/03/18 00:43:16;;;;;;;33.00;18.27;;;3.90;99.90;2.90;102473;;;;567483;249;25178;-79
2022/03/18 00:45:43;;;;;;;32.00;18.17;;;3.90;99.90;2.90;102475;;;;567414;249;25123;-80
2022/03/18 00:53:45;;;;;;;28.70;17.13;;;3.80;99.90;2.90;102483;;;;564577;249;24110;-79
2022/03/18 00:56:14;;;;;;;30.97;18.47;;;3.80;99.90;2.90;102487;;;;568202;249;24092;-80
2022/03/18 00:58:43;;;;;;;35.00;19.53;;;3.80;99.90;2.80;102488;;;;567947;249;24091;-78
2022/03/18 01:01:10;;;;;;;34.70;20.00;;;3.80;99.90;2.80;102483;;;;567918;249;24310;-79
2022/03/18 01:03:38;;;;;;;39.47;19.73;;;3.80;99.90;2.80;102487;;;;568053;249;24102;-80
2022/03/18 01:06:09;;;;;;;35.73;19.10;;;3.70;99.90;2.70;102490;;;;567752;249;24110;-80
2022/03/18 01:08:34;;;;;;;30.67;18.37;;;3.70;99.90;2.70;102484;;;;567595;249;24119;-79
2022/03/18 01:11:02;;;;;;;36.33;18.40;;;3.70;99.90;2.60;102486;;;;567758;249;24126;-78
2022/03/18 01:13:30;;;;;;;39.67;20.17;;;3.60;99.90;2.60;102491;;;;567684;249;24110;-79
2022/03/18 01:15:58;;;;;;;33.67;19.30;;;3.60;99.90;2.60;102487;;;;567754;249;24256;-79
2022/03/18 01:18:25;;;;;;;35.43;18.40;;;3.60;99.90;2.60;102482;;;;567690;249;24099;-80
2022/03/18 01:20:57;;;;;;;31.67;17.23;;;3.50;99.90;2.50;102488;;;;567756;249;24109;-78
2022/03/18 01:23:23;;;;;;;36.00;19.97;;;3.50;99.90;2.50;102481;;;;564167;249;24175;-78
2022/03/18 01:25:50;;;;;;;28.70;18.40;;;3.40;99.90;2.50;102481;;;;567368;249;25136;-79
2022/03/18 01:28:18;;;;;;;32.47;19.43;;;3.40;99.90;2.40;102483;;;;564107;249;24110;-78
2022/03/18 01:30:46;;;;;;;30.53;18.17;;;3.40;99.90;2.40;102489;;;;567419;249;24111;-79
2022/03/18 01:33:14;;;;;;;33.10;17.60;;;3.30;99.90;2.30;102493;;;;567514;249;24110;-79
2022/03/18 01:35:42;;;;;;;38.78;26.98;;;3.30;99.90;2.30;102497;;;;562467;249;46262;-79
2022/03/18 01:38:10;;;;;;;38.80;19.80;;;3.20;99.90;2.30;102489;;;;564248;249;24093;-79
2022/03/18 01:40:38;;;;;;;37.80;19.23;;;3.20;99.90;2.20;102487;;;;567469;249;24115;-80
2022/03/18 01:43:12;;;;;;;34.77;18.40;;;3.20;99.90;2.20;102493;;;;564186;249;24120;-80
2022/03/18 01:45:40;;;;;;;34.57;19.80;;;3.20;99.90;2.20;102490;;;;576001;249;24112;-79
2022/03/18 01:48:08;;;;;;;30.53;17.53;;;3.20;99.90;2.20;102483;;;;567473;249;24078;-78
2022/03/18 01:50:40;;;;;;;37.40;19.67;;;3.20;99.90;2.20;102484;;;;575625;249;24107;-79
2022/03/18 01:53:05;;;;;;;40.97;26.73;;;3.20;99.90;2.20;102493;;;;561968;249;35380;-75
2022/03/18 01:55:33;;;;;;;35.67;22.57;;;3.20;99.90;2.20;102493;;;;563815;249;25158;-78
2022/03/18 01:58:02;;;;;;;28.70;18.10;;;3.20;99.90;2.30;102488;;;;567546;247;24085;-80
2022/03/18 02:00:30;;;;;;;40.93;18.63;;;3.20;99.90;2.30;102493;;;;568889;248;24090;-78
2022/03/18 02:02:58;;;;;;;34.33;18.67;;;3.20;99.90;2.20;102494;;;;568528;249;24100;-78
2022/03/18 02:05:26;;;;;;;23.43;15.53;;;3.20;99.90;2.20;102499;;;;568260;249;24094;-78
2022/03/18 02:07:54;;;;;;;34.87;17.60;;;3.20;99.90;2.20;102501;;;;568187;249;24120;-79
2022/03/18 02:10:25;;;;;;;27.30;16.57;;;3.20;99.90;2.30;102504;;;;568025;249;24094;-79
2022/03/18 02:12:50;;;;;;;30.00;17.17;;;3.20;99.90;2.30;102499;;;;576195;247;24093;-79
2022/03/18 02:15:18;;;;;;;34.07;16.53;;;3.30;99.90;2.30;102501;;;;568013;249;24080;-79
2022/03/18 02:17:58;;;;;;;32.17;16.73;;;3.30;99.90;2.30;102510;;;;568065;249;24076;-83
2022/03/18 02:20:23;;;;;;;30.73;16.27;;;3.30;99.90;2.30;102504;;;;568008;249;24147;-79
2022/03/18 02:22:54;;;;;;;25.20;16.20;;;3.30;99.90;2.30;102504;;;;568012;249;24088;-78
2022/03/18 02:25:20;;;;;;;29.97;16.83;;;3.30;99.90;2.30;102504;;;;567841;249;24083;-78
2022/03/18 02:27:57;;;;;;;29.63;17.67;;;3.30;99.90;2.30;102513;;;;568013;249;24092;-80
2022/03/18 02:30:28;;;;;;;30.70;16.87;;;3.30;99.90;2.30;102520;;;;568147;249;24097;-81
2022/03/18 02:32:56;;;;;;;27.07;17.23;;;3.20;99.90;2.30;102520;;;;576186;249;24141;-80
2022/03/18 02:35:21;;;;;;;30.77;18.53;;;3.20;99.90;2.20;102520;;;;564433;249;24101;-81
2022/03/18 02:37:49;;;;;;;34.60;18.30;;;3.20;99.90;2.20;102524;;;;564816;249;24086;-81
2022/03/18 02:40:20;;;;;;;42.20;19.17;;;3.20;99.90;2.20;102517;;;;568100;249;24142;-79
2022/03/18 02:42:45;;;;;;;33.80;19.20;;;3.20;99.90;2.10;102517;;;;564566;249;24112;-80
2022/03/18 02:45:13;;;;;;;34.87;20.10;;;3.10;99.90;2.10;102520;;;;568315;249;24129;-82
2022/03/18 02:47:42;;;;;;;32.80;18.43;;;3.10;99.90;2.10;102520;;;;568129;249;24111;-78
2022/03/18 02:50:09;;;;;;;35.10;18.07;;;3.10;99.90;2.10;102537;;;;567894;249;24199;-80
2022/03/18 02:52:41;;;;;;;29.13;17.10;;;3.00;99.90;2.00;102529;;;;567432;249;24086;-78
2022/03/18 02:55:05;;;;;;;31.57;17.23;;;3.00;99.90;2.00;102530;;;;563544;249;24155;-79
2022/03/18 02:57:34;;;;;;;34.77;17.70;;;2.90;99.90;1.90;102527;;;;567453;249;24082;-79
2022/03/18 03:00:01;;;;;;;37.60;17.83;;;2.90;99.90;1.90;102530;;;;567387;249;25169;-79
2022/03/18 03:02:29;;;;;;;31.90;18.87;;;2.90;99.90;1.80;102536;;;;567492;249;24108;-79
2022/03/18 03:08:01;;;;;;;31.67;18.10;;;2.70;99.90;1.60;102544;;;;564132;249;24135;-78
2022/03/18 03:10:32;;;;;;;32.03;17.40;;;2.70;99.90;1.60;102547;;;;568091;248;24104;-78
2022/03/18 03:13:03;;;;;;;32.33;18.83;;;2.60;99.90;1.50;102540;;;;568660;248;24139;-79
2022/03/18 03:15:29;;;;;;;29.90;17.40;;;2.50;99.90;1.50;102532;;;;568217;249;24112;-78
2022/03/18 03:17:57;;;;;;;39.30;18.10;;;2.50;99.90;1.40;102538;;;;568230;249;24111;-79
2022/03/18 03:20:25;;;;;;;35.83;18.53;;;2.40;99.90;1.40;102542;;;;568343;249;24128;-81
2022/03/18 03:22:53;;;;;;;41.60;25.25;;;2.40;99.90;1.30;102556;;;;560322;249;35346;-81
2022/03/18 03:25:21;;;;;;;33.87;19.90;;;2.30;99.90;1.20;102550;;;;568431;249;24108;-79
2022/03/18 03:27:48;;;;;;;40.53;18.37;;;2.30;99.90;1.20;102546;;;;568595;249;24105;-82
2022/03/18 03:30:20;;;;;;;27.40;16.10;;;2.20;99.90;1.10;102537;;;;568025;249;24100;-83
2022/03/18 03:32:44;;;;;;;36.40;17.30;;;2.20;99.90;1.10;102538;;;;564763;249;24108;-83
2022/03/18 03:35:15;;;;;;;28.43;14.83;;;2.10;99.90;1.10;102545;;;;568136;249;24204;-81
2022/03/18 03:37:41;;;;;;;32.90;17.43;;;2.10;99.90;1.00;102553;;;;567746;249;24107;-82
2022/03/18 03:40:09;;;;;;;31.87;17.27;;;2.10;99.90;1.00;102559;;;;576381;249;24106;-82
2022/03/18 03:42:37;;;;;;;27.23;17.37;;;2.00;99.90;1.00;102559;;;;564632;249;24085;-82
2022/03/18 03:45:08;;;;;;;29.73;17.83;;;2.00;99.90;0.90;102563;;;;568162;249;24080;-82
2022/03/18 03:47:33;;;;;;;30.47;18.33;;;2.00;99.90;0.90;102570;;;;568301;249;24160;-82
2022/03/18 03:50:01;;;;;;;38.20;22.50;;;1.90;99.90;0.80;102563;;;;568578;249;24110;-80
2022/03/18 03:52:29;;;;;;;34.23;24.00;;;1.90;99.90;0.80;102566;;;;568322;249;24100;-81
2022/03/18 03:54:57;;;;;;;35.57;24.67;;;1.80;99.90;0.80;102575;;;;568164;249;24117;-83
2022/03/18 03:57:27;;;;;;;41.47;24.10;;;1.80;99.90;0.70;102575;;;;568191;249;24207;-83
2022/03/18 03:59:52;;;;;;;32.47;24.90;;;1.80;99.90;0.70;102573;;;;576952;249;24098;-81
2022/03/18 04:02:21;;;;;;;31.83;23.53;;;1.70;99.90;0.70;102572;;;;568027;249;24171;-82
2022/03/18 04:04:52;;;;;;;33.77;24.03;;;1.70;99.90;0.70;102573;;;;568233;249;24085;-82
2022/03/18 04:07:20;;;;;;;32.37;23.90;;;1.70;99.90;0.60;102572;;;;567945;249;24143;-83
2022/03/18 04:09:47;;;;;;;37.13;21.97;;;1.70;99.90;0.60;102579;;;;567992;249;24109;-80
2022/03/18 04:12:13;;;;;;;39.27;24.07;;;1.60;99.90;0.60;102590;;;;576451;249;24115;-79
2022/03/18 04:14:41;;;;;;;35.60;23.30;;;1.60;99.90;0.60;102590;;;;568139;249;24107;-80
2022/03/18 04:17:12;;;;;;;40.43;23.47;;;1.60;99.90;0.50;102596;;;;567739;249;24122;-79
2022/03/18 04:19:36;;;;;;;32.13;23.03;;;1.60;99.90;0.50;102586;;;;576323;249;24189;-81
2022/03/18 04:22:05;;;;;;;33.33;23.37;;;1.50;99.90;0.50;102599;;;;568717;248;24097;-82
2022/03/18 04:24:34;;;;;;;31.63;22.47;;;1.50;99.90;0.40;102604;;;;569129;248;24133;-80
2022/03/18 04:27:01;;;;;;;34.93;22.77;;;1.50;99.90;0.40;102601;;;;568970;249;24066;-81
2022/03/18 04:29:31;;;;;;;31.93;22.80;;;1.50;99.90;0.40;102604;;;;569031;249;24115;-79
2022/03/18 04:31:57;;;;;;;33.80;23.30;;;1.40;99.90;0.40;102607;;;;568670;249;24135;-80
2022/03/18 04:34:25;;;;;;;31.73;21.47;;;1.40;99.90;0.40;102607;;;;568105;249;24066;-79
2022/03/18 04:36:53;;;;;;;33.60;22.43;;;1.40;99.90;0.30;102613;;;;568083;249;24092;-80
2022/03/18 04:39:24;;;;;;;28.90;22.33;;;1.40;99.90;0.30;102608;;;;568518;249;24099;-80
2022/03/18 04:41:49;;;;;;;32.30;22.43;;;1.40;99.90;0.30;102623;;;;568387;249;24093;-81
2022/03/18 04:44:17;;;;;;;35.97;22.23;;;1.40;99.90;0.30;102619;;;;568511;249;24096;-80
2022/03/18 04:46:48;;;;;;;31.67;22.37;;;1.40;99.90;0.30;102614;;;;568344;249;24078;-80
2022/03/18 04:49:13;;;;;;;31.67;21.97;;;1.40;99.90;0.30;102625;;;;568238;249;24104;-81
2022/03/18 04:51:41;;;;;;;29.53;20.93;;;1.40;99.90;0.30;102618;;;;568305;249;24112;-78
2022/03/18 04:54:10;;;;;;;31.37;21.53;;;1.40;99.90;0.40;102627;;;;568125;249;24086;-78
2022/03/18 04:59:24;;;;;;;33.57;22.13;;;1.40;99.90;0.30;102625;;;;565238;249;24154;-82
2022/03/18 05:01:53;;;;;;;34.83;21.93;;;1.40;99.90;0.40;102631;;;;568486;249;25150;-82
2022/03/18 05:04:21;;;;;;;34.47;21.47;;;1.40;99.90;0.40;102630;;;;568605;249;24152;-81
2022/03/18 05:06:49;;;;;;;33.73;21.07;;;1.40;99.90;0.40;102642;;;;568764;249;25133;-82
2022/03/18 05:09:17;;;;;;;29.73;22.17;;;1.40;99.90;0.40;102634;;;;568578;249;24091;-79
2022/03/18 05:11:47;;;;;;;33.63;20.80;;;1.40;99.90;0.50;102639;;;;568460;249;24102;-82
2022/03/18 05:14:16;;;;;;;33.47;19.80;;;1.50;99.90;0.50;102648;;;;568364;249;24095;-82
2022/03/18 05:16:43;;;;;;;28.63;19.13;;;1.50;99.90;0.60;102652;;;;568458;249;24083;-80
2022/03/18 05:19:11;;;;;;;28.20;19.17;;;1.60;99.90;0.60;102649;;;;568569;249;24096;-83
2022/03/18 05:21:42;;;;;;;30.40;20.13;;;1.60;99.90;0.70;102649;;;;568560;249;24164;-82
2022/03/18 05:24:10;;;;;;;27.77;18.33;;;1.70;99.90;0.80;102657;;;;568428;249;24118;-83
2022/03/18 05:26:41;;;;;;;26.77;17.93;;;1.80;99.90;0.80;102654;;;;568216;249;24231;-80
2022/03/18 05:29:06;;;;;;;28.03;17.73;;;1.80;99.90;0.90;102667;;;;576618;249;24131;-80
2022/03/18 05:31:37;;;;;;;28.40;16.03;;;1.90;99.90;1.00;102659;;;;568090;249;24093;-79
2022/03/18 05:34:05;;;;;;;22.87;12.70;;;2.10;99.90;1.00;102662;;;;577402;247;24156;-80
2022/03/18 05:36:31;;;;;;;22.83;12.50;;;2.00;99.90;1.10;102661;;;;571030;248;24095;-81
2022/03/18 05:38:59;;;;;;;24.70;12.10;;;2.20;99.90;1.30;102668;;;;568905;249;24096;-81
2022/03/18 05:41:27;;;;;;;25.17;12.07;;;2.20;99.90;1.40;102668;;;;568873;249;24166;-81
2022/03/18 05:43:55;;;;;;;21.53;11.87;;;2.40;99.90;1.50;102664;;;;568665;249;24102;-80
2022/03/18 05:46:27;;;;;;;22.50;12.73;;;2.50;99.90;1.70;102683;;;;568625;249;24099;-82
2022/03/18 05:48:51;;;;;;;21.97;11.70;;;2.60;99.90;1.80;102679;;;;568445;249;24118;-79
2022/03/18 05:51:19;;;;;;;22.43;11.97;;;2.80;99.90;2.00;102676;;;;567955;249;24162;-80
2022/03/18 05:53:47;;;;;;;22.93;12.67;;;3.00;99.90;2.30;102685;;;;567979;249;24107;-80
2022/03/18 05:59:04;;;;;;;19.20;10.80;;;3.40;99.90;2.80;102690;;;;567998;249;24115;-81
2022/03/18 06:01:29;;;;;;;21.07;12.07;;;3.70;99.90;3.00;102694;;;;568055;249;24150;-81
2022/03/18 06:03:57;;;;;;;18.37;10.57;;;3.90;99.90;3.40;102703;;;;564706;249;24085;-79
2022/03/18 06:06:25;;;;;;;21.73;10.30;;;4.20;99.90;3.80;102701;;;;568131;249;24114;-80
2022/03/18 06:11:54;;;;;;;22.80;11.70;;;4.90;99.90;4.30;102711;;;;568620;249;24153;-79
2022/03/18 06:14:25;;;;;;;23.53;12.00;;;5.20;99.90;4.60;102716;;;;568865;249;24100;-78
2022/03/18 06:16:50;;;;;;;18.03;10.40;;;5.50;99.90;4.90;102716;;;;568707;249;24124;-80
2022/03/18 06:19:18;;;;;;;20.47;13.03;;;5.80;99.90;5.40;102714;;;;577270;249;24093;-81
2022/03/18 06:21:46;;;;;;;21.97;11.23;;;6.20;99.90;5.80;102724;;;;565564;249;24093;-80
2022/03/18 06:24:18;;;;;;;26.03;11.17;;;7.00;99.90;6.30;102722;;;;568401;249;24159;-80
2022/03/18 06:26:43;;;;;;;24.30;12.07;;;7.50;98.10;6.80;102720;;;;567539;249;25154;-78
2022/03/18 06:29:11;;;;;;;19.40;11.30;;;7.50;97.80;7.20;102729;;;;567798;249;24138;-80
2022/03/18 06:31:39;;;;;;;15.40;10.67;;;7.90;94.80;7.50;102735;;;;564677;249;24115;-80
2022/03/18 06:34:07;;;;;;;18.17;11.80;;;8.30;92.80;7.90;102738;;;;567963;249;24093;-79
2022/03/18 06:36:38;;;;;;;20.50;10.87;;;8.60;91.40;8.30;102738;;;;576839;249;24165;-81
2022/03/18 06:39:05;;;;;;;18.67;10.50;;;9.00;89.50;8.80;102736;;;;568483;249;24114;-78
2022/03/18 06:41:36;;;;;;;16.87;10.70;;;9.40;86.10;9.40;102741;;;;568468;249;24143;-82
2022/03/18 06:44:01;;;;;;;18.03;11.37;;;10.00;82.50;9.90;102752;;;;567696;249;24117;-80
2022/03/18 06:46:29;;;;;;;16.73;10.70;;;10.50;78.20;10.30;102761;;;;569234;248;24137;-80
2022/03/18 06:48:57;;;;;;;14.60;10.50;;;11.00;74.40;10.60;102761;;;;570216;248;24186;-80
2022/03/18 06:51:25;;;;;;;19.53;11.53;;;11.30;72.30;11.00;102757;;;;569456;249;24080;-81
2022/03/18 06:53:53;;;;;;;15.53;10.70;;;11.90;67.10;11.20;102755;;;;569261;249;24092;-81
2022/03/18 06:56:22;;;;;;;21.63;11.53;;;12.10;66.10;11.50;102763;;;;564431;249;24090;-80
2022/03/18 06:58:51;;;;;;;20.03;11.30;;;12.50;65.30;11.90;102764;;;;564810;249;24075;-80
2022/03/18 07:01:21;;;;;;;27.73;11.90;;;12.40;65.20;12.30;102779;;;;564725;249;24133;-79
2022/03/18 07:03:54;;;;;;;18.90;9.97;;;13.20;61.60;12.60;102780;;;;568861;249;24097;-79
2022/03/18 07:06:18;;;;;;;16.10;11.40;;;13.20;61.50;13.00;102788;;;;563976;249;24094;-80
2022/03/18 07:08:46;;;;;;;16.83;11.23;;;13.60;59.80;13.30;102784;;;;564146;249;24076;-81
2022/03/18 07:11:14;;;;;;;16.40;10.57;;;13.90;58.40;13.40;102789;;;;564587;249;24081;-81
2022/03/18 07:13:45;;;;;;;20.67;11.40;;;14.10;58.10;13.40;102791;;;;564379;249;24069;-82
2022/03/18 07:18:56;;;;;;;26.33;11.13;;;14.20;55.60;14.00;102795;;;;572670;249;24106;-82
2022/03/18 07:21:24;;;;;;;15.50;10.60;;;14.60;55.60;14.60;102791;;;;564346;249;24081;-83
2022/03/18 07:23:52;;;;;;;16.10;10.23;;;15.10;54.50;15.00;102796;;;;566045;249;24131;-82
2022/03/18 07:26:23;;;;;;;20.43;10.67;;;15.50;53.00;15.20;102789;;;;568388;249;24128;-79
2022/03/18 07:28:47;;;;;;;19.87;9.93;;;15.80;52.00;15.40;102792;;;;566939;249;24180;-81
2022/03/18 07:31:15;;;;;;;13.47;9.80;;;16.00;50.70;15.70;102796;;;;567035;249;24090;-82
2022/03/18 07:33:43;;;;;;;26.37;10.43;;;16.20;50.20;16.10;102796;;;;567148;249;24092;-80
2022/03/18 07:36:11;;;;;;;21.67;9.97;;;16.60;49.10;16.60;102796;;;;568350;249;24120;-81
2022/03/18 07:38:39;;;;;;;18.43;11.10;;;17.10;48.30;17.20;102807;;;;567473;249;24084;-81
2022/03/18 07:41:07;;;;;;;26.30;10.33;;;17.60;47.30;17.50;102799;;;;568442;249;24105;-81
2022/03/18 07:43:35;;;;;;;20.33;10.10;;;18.10;46.90;17.90;102810;;;;568449;249;24108;-81
2022/03/18 07:46:03;;;;;;;19.43;10.23;;;18.40;45.60;18.00;102800;;;;568525;249;24074;-82
2022/03/18 07:48:31;;;;;;;16.83;10.77;;;18.70;45.10;18.50;102804;;;;568419;249;24137;-82
2022/03/18 07:50:59;;;;;;;20.27;10.23;;;19.10;45.00;19.30;102806;;;;568369;249;23132;-81
2022/03/18 07:53:27;;;;;;;17.20;10.60;;;20.20;42.60;19.60;102814;;;;568436;249;24079;-80
2022/03/18 07:55:56;;;;;;;14.73;9.90;;;20.50;41.70;19.90;102815;;;;568371;247;24094;-81
2022/03/18 07:58:25;;;;;;;13.50;10.33;;;21.00;41.00;20.50;102827;;;;568538;248;24074;-80
2022/03/18 08:00:53;;;;;;;22.00;12.63;;;21.00;40.90;21.10;102830;;;;568007;249;23095;-79
2022/03/18 08:03:21;;;;;;;29.03;11.77;;;22.20;39.40;21.50;102828;;;;573247;249;24229;-80
2022/03/18 08:05:50;;;;;;;29.23;11.50;;;22.60;38.30;22.00;102827;;;;568997;249;24128;-79
2022/03/18 08:08:18;;;;;;;16.23;10.67;;;22.60;38.30;22.20;102834;;;;569117;249;24088;-80
2022/03/18 08:10:46;;;;;;;15.77;10.83;;;22.80;37.80;22.40;102839;;;;564437;249;24095;-81
2022/03/18 08:13:14;;;;;;;16.00;10.20;;;23.10;37.50;22.40;102844;;;;576110;249;24126;-80
2022/03/18 08:15:44;;;;;;;26.83;10.87;;;23.20;36.60;22.60;102852;;;;576083;249;24189;-80
2022/03/18 08:18:10;;;;;;;16.67;11.03;;;23.40;36.50;23.00;102851;;;;569298;249;24090;-81
2022/03/18 08:20:41;;;;;;;13.53;11.20;;;23.70;36.30;23.50;102854;;;;564362;249;24131;-80
2022/03/18 08:23:06;;;;;;;16.90;11.43;;;24.20;35.80;23.90;102858;;;;575844;249;24095;-81
2022/03/18 08:25:33;;;;;;;17.20;10.67;;;24.60;34.90;24.40;102861;;;;567365;249;23133;-80
2022/03/18 08:28:05;;;;;;;23.23;11.17;;;25.00;34.30;25.30;102861;;;;568843;249;23131;-81
2022/03/18 08:30:29;;;;;;;19.60;10.30;;;25.90;34.10;25.80;102862;;;;567352;249;23115;-79
2022/03/18 08:32:57;;;;;;;23.27;11.00;;;26.50;33.50;25.60;102870;;;;568692;249;23152;-79
2022/03/18 08:35:25;;;;;;;15.63;10.27;;;26.60;32.90;25.30;102869;;;;568490;249;23107;-79
2022/03/18 08:37:59;;;;;;;13.90;10.57;;;26.40;33.20;25.00;102877;;;;568699;249;23104;-80
2022/03/18 08:40:29;;;;;;;16.83;11.53;;;26.10;32.90;24.70;102872;;;;568590;249;24086;-82
2022/03/18 08:43:01;;;;;;;19.03;10.47;;;25.80;33.00;24.90;102867;;;;567592;249;24148;-80
2022/03/18 08:45:27;;;;;;;16.67;11.10;;;26.20;32.60;25.40;102878;;;;572087;249;24123;-81
2022/03/18 08:48:00;;;;;;;20.07;10.90;;;26.30;32.20;25.40;102869;;;;566731;249;23113;-79
2022/03/18 08:50:24;;;;;;;13.30;10.37;;;26.30;32.10;25.40;102877;;;;565777;249;23122;-79
2022/03/18 08:52:53;;;;;;;48.47;13.17;;;26.40;31.70;25.40;102881;;;;567297;249;23098;-80
2022/03/18 08:55:22;;;;;;;18.10;11.40;;;26.40;31.50;25.30;102879;;;;575889;249;23106;-80
2022/03/18 08:57:49;;;;;;;19.23;12.50;;;26.30;31.40;25.50;102873;;;;564108;249;23129;-79
2022/03/18 09:00:21;;;;;;;17.00;11.27;;;26.50;31.40;26.20;102880;;;;576139;249;23105;-79
2022/03/18 09:02:46;;;;;;;27.27;10.97;;;27.50;31.10;26.70;102882;;;;565637;249;23126;-81
2022/03/18 09:05:14;;;;;;;37.05;12.20;;;27.50;31.10;26.70;102886;;;;572422;249;23120;-79
2022/03/18 09:07:43;;;;;;;29.43;11.77;;;27.80;30.60;26.60;102895;;;;564180;247;24115;-79
2022/03/18 09:10:13;;;;;;;15.70;10.33;;;27.80;30.30;26.20;102898;;;;565272;248;23107;-80
2022/03/18 09:12:51;;;;;;;15.33;11.63;;;27.60;30.00;25.80;102895;;;;568630;249;23110;-79
2022/03/18 09:15:18;;;;;;;13.13;10.53;;;27.20;30.00;25.50;102900;;;;567143;249;23121;-79
2022/03/18 09:17:46;;;;;;;11.07;9.73;;;26.90;31.10;25.60;102903;;;;568970;249;23194;-83
2022/03/18 09:20:14;;;;;;;13.40;10.40;;;26.90;30.90;25.60;102907;;;;568499;249;23109;-83
2022/03/18 09:22:42;;;;;;;28.03;11.37;;;26.70;30.60;25.30;102906;;;;568632;249;23160;-81
2022/03/18 09:25:10;;;;;;;29.00;11.13;;;26.60;31.00;25.30;102901;;;;567946;249;23159;-80
2022/03/18 09:27:38;;;;;;;18.87;11.57;;;26.50;31.40;25.40;102909;;;;564493;249;23096;-82
2022/03/18 09:30:10;;;;;;;15.53;10.63;;;26.50;31.50;25.40;102903;;;;564588;249;24101;-82
2022/03/18 09:32:34;;;;;;;12.13;10.40;;;26.60;31.70;25.60;102904;;;;569058;249;23133;-81
2022/03/18 09:35:05;;;;;;;15.67;11.23;;;26.60;32.10;25.90;102904;;;;577789;249;23106;-80
2022/03/18 09:37:30;;;;;;;14.53;11.57;;;26.90;31.30;26.00;102905;;;;567788;249;23129;-82
2022/03/18 09:40:00;;;;;;;15.33;11.23;;;27.10;31.10;25.70;102907;;;;564220;249;23154;-81
2022/03/18 09:42:25;;;;;;;16.23;10.83;;;26.90;31.40;25.00;102920;;;;564093;249;24104;-80
2022/03/18 09:44:54;;;;;;;15.50;11.50;;;25.80;31.90;24.30;102916;;;;568470;249;25221;-80
2022/03/18 09:47:23;;;;;;;14.53;11.30;;;25.20;32.00;23.80;102918;;;;568492;249;23101;-81
2022/03/18 09:49:52;;;;;;;18.73;11.90;;;24.80;32.60;23.60;102918;;;;567060;249;24115;-80
2022/03/18 09:52:23;;;;;;;17.30;10.77;;;24.80;32.50;23.80;102925;;;;568321;249;23103;-80
2022/03/18 09:54:48;;;;;;;14.10;10.40;;;24.90;32.80;24.20;102916;;;;563684;249;23125;-80
2022/03/18 09:57:16;;;;;;;28.77;11.33;;;25.50;31.50;24.40;102925;;;;568346;249;23118;-79
2022/03/18 09:59:44;;;;;;;23.10;11.03;;;25.40;31.40;24.60;102930;;;;575680;249;24176;-80
2022/03/18 10:02:34;;;;;;;17.80;10.07;;;25.70;32.00;24.60;102933;;;;568338;249;24086;-81
2022/03/18 10:04:58;;;;;;;15.20;10.40;;;25.80;30.70;24.50;102933;;;;566945;249;23107;-81
2022/03/18 10:07:26;;;;;;;12.97;10.20;;;25.80;31.60;24.70;102940;;;;564110;249;23108;-80
2022/03/18 10:10:02;;;;;;;13.33;10.73;;;26.00;31.10;24.70;102936;;;;566616;249;23225;-80
2022/03/18 10:12:36;;;;;;;13.53;9.90;;;25.90;30.70;24.50;102936;;;;573019;246;24107;-80
2022/03/18 10:15:04;;;;;;;11.93;9.90;;;25.80;30.60;24.10;102940;;;;562670;250;25246;-80
2022/03/18 10:17:38;;;;;;;12.37;9.63;;;25.50;30.70;23.90;102939;;;;573455;246;23129;-80
2022/03/18 10:20:08;;;;;;;15.27;9.53;;;25.30;31.10;23.40;102940;;;;579701;245;23107;-82
2022/03/18 10:22:36;;;;;;;16.07;9.70;;;24.90;31.10;23.30;102935;;;;574152;245;23166;-80
2022/03/18 10:25:01;;;;;;;11.70;9.87;;;24.70;31.60;23.20;102945;;;;564427;250;24107;-80
2022/03/18 10:27:33;;;;;;;13.80;10.00;;;24.50;31.70;22.80;102942;;;;574414;245;23109;-80
2022/03/18 10:29:57;;;;;;;12.63;10.10;;;24.20;31.80;22.30;102936;;;;572041;248;24112;-80
2022/03/18 10:32:31;;;;;;;12.57;10.10;;;22.90;32.90;21.50;102938;;;;570864;247;24097;-82
2022/03/18 10:37:47;;;;;;;15.43;10.30;;;22.30;33.70;20.60;102933;;;;573919;246;24145;-84
2022/03/18 10:40:14;;;;;;;11.50;9.53;;;21.80;34.10;20.10;102940;;;;562773;250;24221;-80
2022/03/18 10:42:42;;;;;;;11.57;9.57;;;21.20;34.70;19.50;102945;;;;568877;248;24192;-80
2022/03/18 10:45:10;;;;;;;12.50;9.63;;;20.60;35.40;19.20;102941;;;;567916;248;24085;-79
2022/03/18 10:47:38;;;;;;;12.37;9.77;;;20.20;36.10;18.70;102949;;;;569000;248;24073;-79
2022/03/18 10:50:12;;;;;;;12.63;9.50;;;19.70;36.50;18.30;102937;;;;577588;247;24133;-79
2022/03/18 10:52:46;;;;;;;12.03;9.33;;;18.60;38.40;17.80;102937;;;;569283;248;23089;-80
2022/03/18 10:55:26;;;;;;;15.60;9.63;;;18.50;38.30;17.30;102939;;;;568855;248;24131;-82
2022/03/18 10:57:59;;;;;;;12.63;10.32;;;17.40;39.30;16.70;102938;;;;563824;248;35429;-81
2022/03/18 11:00:25;;;;;;;9.80;8.50;;;17.30;39.10;16.30;102940;;;;566143;248;24093;-80
2022/03/18 11:02:58;;;;;;;14.05;9.98;;;16.90;40.20;16.00;102935;;;;563865;248;35284;-80
2022/03/18 11:05:21;;;;;;;15.53;8.70;;;16.60;41.30;15.80;102943;;;;577023;248;24111;-81
2022/03/18 11:07:53;;;;;;;10.57;8.33;;;16.30;41.70;15.60;102939;;;;568993;248;24140;-79
2022/03/18 11:13:03;;;;;;;13.53;8.27;;;15.80;42.30;15.10;102939;;;;566584;248;24161;-80
2022/03/18 11:15:35;;;;;;;9.63;7.63;;;15.60;42.80;14.90;102936;;;;566208;248;24140;-80
2022/03/18 11:18:03;;;;;;;12.73;7.80;;;15.40;43.20;14.50;102933;;;;568172;248;24119;-79
2022/03/18 11:20:27;;;;;;;13.20;8.27;;;15.10;43.40;14.20;102936;;;;566153;248;24111;-79
2022/03/18 11:22:55;;;;;;;12.57;8.57;;;14.80;43.60;13.90;102928;;;;582248;245;24133;-79
2022/03/18 11:25:23;;;;;;;12.50;8.00;;;14.50;44.00;13.60;102924;;;;563162;250;24148;-80
2022/03/18 11:27:51;;;;;;;13.17;8.47;;;14.20;44.30;13.30;102928;;;;571373;251;24128;-79
2022/03/18 11:30:19;;;;;;;12.40;8.20;;;14.00;44.90;13.00;102927;;;;573392;246;24089;-79
2022/03/18 11:33:11;;;;;;;11.30;8.20;;;13.70;45.40;12.80;102929;;;;564323;250;24124;-80
2022/03/18 11:35:51;;;;;;;10.27;8.23;;;13.40;46.10;12.70;102924;;;;564212;250;24162;-79